Share

Walker, MO (64790)

Nevada (KMONEVAD4) Elev 879 ft | 37.82 °N, 94.33 °W | Change Station

Current weather conditions updated 1 second ago

Clear
Clear
58.8 °F
Feels Like 58.8 °F
N
3.8
Wind Variable Wind from SE
Gusts 6.0 mph
Sunrise 6:40 AM
Sunset 7:53 PM
Moon Waning Gibbous

Tomorrow is forecast to be Much Cooler than today.

Pressure 29.97 in
Visibility 10.0 miles
Clouds Clear
Dew Point 36 °F
Humidity 43%
Rainfall 0.00 in
Snow Depth Not available.
UV 0 out of 16
Pollen 10.70 out of 12
Air Quality Not available.
Flu Activity Sporadic
METAR KPTS 170035Z AUTO 22009KT 10SM CLR 16/M01 A2997 RMK AO2 T01601010

More Conditions Fewer Conditions

Pressure 29.97 in
Visibility 10.0 miles
Clouds Clear
Dew Point 36 °F
Humidity 43%
Rainfall 0.00 in
Snow Depth Not available.
UV 0 out of 16
Pollen 10.70 out of 12
Air Quality Not available.
Flu Activity Sporadic
METAR KPTS 170035Z AUTO 22009KT 10SM CLR 16/M01 A2997 RMK AO2 T01601010

More Conditions Fewer Conditions

10-Day Forecast

Almanac

Astronomy

Apr. 16, 2014 Rise Set
Actual Time 6:40 AM CDT 7:53 PM CDT
Civil Twilight 6:13 AM CDT 8:21 PM CDT
Nautical Twilight 5:40 AM CDT 8:53 PM CDT
Astronomical Twilight 5:06 AM CDT 9:27 PM CDT
Moon 9:36 PM CDT (4/16) 7:29 AM CDT (4/16)
Length of Visible Light 14h 07m
Length of Day
13h 13m
Tomorrow will be 2m 18s longer.
Waning Gibbous, 97% of the Moon is Illuminated
Today
Waning Gibbous
Apr 22
Last Quarter
Apr 29
New
May 6
First Quarter
May 14
Full

Today's Extremes

State Highs State Lows

Community

  • symphony in blue....
    symphony in blue....
  • Dawn Surprise
    Dawn Surprise
  • Yucca delight
    Yucca delight
  • Sunset inside of the Ocean
    Sunset inside of the Ocean
  • Lunar eclipse 15 April 2014
    Lunar eclipse 15 April 2014

WunderPhotos

Upload Photos

1,701,768 photos uploaded!

WunderBlogs® & News

Nearby

Snow Depth

Station Depth Elevation
No new snow has been reported.

Coastal Water Temperatures

Place Temperature
No Stations Reporting

Earthquake Activity

City Distance Mag. Time & Date
No recent earthquake activity has been reported nearby.
Minimum magnitude displayed is 2.5.

Nearby Weather Stations

Station Location Temp. Dew Point Humidity Wind Precip. Elev Updated Type
Nevada, Nevada, MO 58.8 °F 36 °F 43% SE  at  3.8 mph 0.00 in / hr 879 ft 8:51 PM EDT Rapid Fire
Irwin, MO, Lamar, MO 57.6 °F 35 °F 43% SSW  at  9.0 mph 0.00 in / hr 955 ft 7:51 PM CDT Normal

Show More Stations Show Fewer Stations

What do you think?

We're not finished. Please let us know what you like, what you don't like, and what you are still missing.